Weather in selectable METAR weather stations Station search

1) Select the Continent / Group:

[Europe]  [Asia]  [Africa]  [North America]  [South America]  
[Central America and Caribbean]  [Oceania]  [Antarctica]  
2) Select the Weather station (City):


METAR = CYBK 190100Z 26016G22KT 15SM SCT015 BKN035 M00/M02 A2970 RMK SC3SC4 SLP062

STATIONCYBK
NAMEBaker Lake Arpt, NU, CN
OBSERVED18.10.2021 20:00 (19.10.2021 01:00 UTC), 32 min ago
TEMPERATURE0.0°C ( 32°F)
WINDCHILL-7.5 °C (19 °F)
WINDW (260 degrees) at 18 MPH (16 knots; 8.2 m/s) gusting to 25 MPH (22 knots; 11.3 m/s)
HUMIDITY86%
PRESSURE1005.8 hPa
Click here to search the weather station or to give the station identifier
(four-character ICAO Location Indicator) for weather data.